地図

経路データ

SID SEASON NUMBER BASIN SUBBASIN NAME ISO_TIME NATURE LAT LON WMO_WIND WMO_PRES WMO_AGENCY TRACK_TYPE DIST2LAND LANDFALL IFLAG USA_AGENCY USA_ATCF_ID USA_LAT USA_LON USA_RECORD USA_STATUS USA_WIND USA_PRES USA_SSHS USA_R34_NE USA_R34_SE USA_R34_SW USA_R34_NW USA_R50_NE USA_R50_SE USA_R50_SW USA_R50_NW USA_R64_NE USA_R64_SE USA_R64_SW USA_R64_NW USA_POCI USA_ROCI USA_RMW USA_EYE TOKYO_LAT TOKYO_LON TOKYO_GRADE TOKYO_WIND TOKYO_PRES TOKYO_R50_DIR TOKYO_R50_LONG TOKYO_R50_SHORT TOKYO_R30_DIR TOKYO_R30_LONG TOKYO_R30_SHORT TOKYO_LAND CMA_LAT CMA_LON CMA_CAT CMA_WIND CMA_PRES HKO_LAT HKO_LON HKO_CAT HKO_WIND HKO_PRES NEWDELHI_LAT NEWDELHI_LON NEWDELHI_GRADE NEWDELHI_WIND NEWDELHI_PRES NEWDELHI_CI NEWDELHI_DP NEWDELHI_POCI REUNION_LAT REUNION_LON REUNION_TYPE REUNION_WIND REUNION_PRES REUNION_TNUM REUNION_CI REUNION_RMW REUNION_R34_NE REUNION_R34_SE REUNION_R34_SW REUNION_R34_NW REUNION_R50_NE REUNION_R50_SE REUNION_R50_SW REUNION_R50_NW REUNION_R64_NE REUNION_R64_SE REUNION_R64_SW REUNION_R64_NW BOM_LAT BOM_LON BOM_TYPE BOM_WIND BOM_PRES BOM_TNUM BOM_CI BOM_RMW BOM_R34_NE BOM_R34_SE BOM_R34_SW BOM_R34_NW BOM_R50_NE BOM_R50_SE BOM_R50_SW BOM_R50_NW BOM_R64_NE BOM_R64_SE BOM_R64_SW BOM_R64_NW BOM_ROCI BOM_POCI BOM_EYE BOM_POS_METHOD BOM_PRES_METHOD NADI_LAT NADI_LON NADI_CAT NADI_WIND NADI_PRES WELLINGTON_LAT WELLINGTON_LON WELLINGTON_WIND WELLINGTON_PRES DS824_LAT DS824_LON DS824_STAGE DS824_WIND DS824_PRES TD9636_LAT TD9636_LON TD9636_STAGE TD9636_WIND TD9636_PRES TD9635_LAT TD9635_LON TD9635_WIND TD9635_PRES TD9635_ROCI NEUMANN_LAT NEUMANN_LON NEUMANN_CLASS NEUMANN_WIND NEUMANN_PRES MLC_LAT MLC_LON MLC_CLASS MLC_WIND MLC_PRES USA_GUST BOM_GUST BOM_GUST_PER REUNION_GUST REUNION_GUST_PER USA_SEAHGT USA_SEARAD_NE USA_SEARAD_SE USA_SEARAD_SW USA_SEARAD_NW STORM_SPEED STORM_DIR
1876213N32288 1876 11 NA NA NOT_NAMED 1876-07-30 12:00:00 TS 32.2000 -72.1000 main 491 484 _____________O -1 32.2000 -72.1000 TD 30 3 348
1876213N32288 1876 11 NA NA NOT_NAMED 1876-07-30 15:00:00 TS 32.3500 -72.1524 main 470 463 _____________P -1 32.3500 -72.1524 TD 30 3 344
1876213N32288 1876 11 NA NA NOT_NAMED 1876-07-30 18:00:00 TS 32.5000 -72.2000 main 463 456 _____________O -1 32.5000 -72.2000 TD 30 3 346
1876213N32288 1876 11 NA NA NOT_NAMED 1876-07-30 21:00:00 TS 32.6500 -72.2426 main 456 436 _____________P -1 32.6500 -72.2426 TD 32 3 344
1876213N32288 1876 11 NA NA NOT_NAMED 1876-07-31 00:00:00 TS 32.8000 -72.3000 main 436 422 _____________O -1 32.8000 -72.3000 TS 35 3 336
1876213N32288 1876 11 NA NA NOT_NAMED 1876-07-31 03:00:00 TS 32.9425 -72.4000 main 422 403 _____________P -1 32.9425 -72.4000 TS 35 3 331
1876213N32288 1876 11 NA NA NOT_NAMED 1876-07-31 06:00:00 TS 33.1000 -72.5000 main 403 382 _____________O -1 33.1000 -72.5000 TS 35 4 340
1876213N32288 1876 11 NA NA NOT_NAMED 1876-07-31 09:00:00 TS 33.3000 -72.5575 main 382 367 _____________P -1 33.3000 -72.5575 TS 37 4 349
1876213N32288 1876 11 NA NA NOT_NAMED 1876-07-31 12:00:00 TS 33.5000 -72.6000 main 367 360 _____________O -1 33.5000 -72.6000 TS 40 4 347
1876213N32288 1876 11 NA NA NOT_NAMED 1876-07-31 15:00:00 TS 33.6575 -72.6500 main 346 338 _____________P -1 33.6575 -72.6500 TS 40 3 346
1876213N32288 1876 11 NA NA NOT_NAMED 1876-07-31 18:00:00 TS 33.8000 -72.7000 main 338 331 _____________O -1 33.8000 -72.7000 TS 40 3 344
1876213N32288 1876 11 NA NA NOT_NAMED 1876-07-31 21:00:00 TS 33.9500 -72.7500 main 317 310 _____________P -1 33.9500 -72.7500 TS 42 3 346
1876213N32288 1876 11 NA NA NOT_NAMED 1876-08-01 00:00:00 TS 34.1000 -72.8000 main 310 303 _____________O -1 34.1000 -72.8000 TS 45 3 344
1876213N32288 1876 11 NA NA NOT_NAMED 1876-08-01 03:00:00 TS 34.2425 -72.8500 main 296 282 _____________P -1 34.2425 -72.8500 TS 47 3 346
1876213N32288 1876 11 NA NA NOT_NAMED 1876-08-01 06:00:00 TS 34.4000 -72.9000 main 282 263 _____________O -1 34.4000 -72.9000 TS 50 3 344
1876213N32288 1876 11 NA NA NOT_NAMED 1876-08-01 09:00:00 TS 34.5625 -72.9649 main 263 252 _____________P -1 34.5625 -72.9649 TS 52 4 349
1876213N32288 1876 11 NA NA NOT_NAMED 1876-08-01 12:00:00 TS 34.8000 -73.0000 main 252 239 _____________O -1 34.8000 -73.0000 TS 55 6 360
1876213N32288 1876 11 NA NA NOT_NAMED 1876-08-01 15:00:00 TS 35.1625 -72.9651 main 235 232 _____________P -1 35.1625 -72.9651 TS 57 8 6
1876213N32288 1876 11 NA NA NOT_NAMED 1876-08-01 18:00:00 TS 35.6000 -72.9000 main 235 233 _____________O -1 35.6000 -72.9000 TS 60 9 3
1876213N32288 1876 11 NA NA NOT_NAMED 1876-08-01 21:00:00 TS 36.0198 -72.9013 main 234 234 _____________P -1 36.0198 -72.9013 TS 62 9 5
1876213N32288 1876 11 NA NA NOT_NAMED 1876-08-02 00:00:00 TS 36.5000 -72.8000 main 254 254 _____________O -1 36.5000 -72.8000 HU 65 12 14
1876213N32288 1876 11 NA NA NOT_NAMED 1876-08-02 03:00:00 TS 37.1438 -72.5433 main 264 253 _____________P -1 37.1438 -72.5433 HU 65 14 28
1876213N32288 1876 11 NA NA NOT_NAMED 1876-08-02 06:00:00 TS 37.7000 -72.0000 main 278 278 _____________O -1 37.7000 -72.0000 HU 65 14 55
1876213N32288 1876 11 NA NA NOT_NAMED 1876-08-02 09:00:00 TS 37.9409 -71.0895 main 329 329 _____________P -1 37.9409 -71.0895 HU 57 16 79
1876213N32288 1876 11 NA NA NOT_NAMED 1876-08-02 12:00:00 TS 38.0000 -70.0000 main 383 383 _____________O -1 38.0000 -70.0000 TS 50 16 87
1876213N32288 1876 11 NA NA NOT_NAMED 1876-08-02 15:00:00 TS 38.0216 -68.9991 main 415 415 _____________P -1 38.0216 -68.9991 TS 40 16 90
1876213N32288 1876 11 NA NA NOT_NAMED 1876-08-02 18:00:00 TS 38.0000 -68.0000 main 445 445 _____________O -1 38.0000 -68.0000 TD 30 16 91
1876213N32288 1876 11 NA NA NOT_NAMED 1876-08-02 21:00:00 TS 37.9942 -67.0005 main 484 484 _____________P -1 37.9942 -67.0005 TD 30 16 90
1876213N32288 1876 11 NA NA NOT_NAMED 1876-08-03 00:00:00 TS 38.0000 -66.0000 main 534 _____________O -1 38.0000 -66.0000 TD 30 16 90

IBTrACS Databaseについて

本データベースは、米国NOAAが公開する1842年以降の世界の熱帯低気圧のベストトラックデータアーカイブInternational Best Track Archive for Climate Stewardship (IBTrACS)を、ウェブで閲覧しやすい形式に変換したものです。

最終更新日:2021-12-01